Time;durP1;ratioP1;P1;durP2;ratioP2;P2;SDS_P1;SDS_P2;PMS_P1;PMS_P2;Temp;Humidity;BMP_temperature;BMP_pressure;BME280_temperature;BME280_humidity;BME280_pressure;Samples;Min_cycle;Max_cycle;Signal;HPM_P1;HPM_P2
2020/12/25 00:02:16;;;;;;;0.90;0.70;;;5.80;94.10;;;5.34;88.50;97819.38;5045123;28;20713;-64
2020/12/25 00:04:44;;;;;;;0.80;0.73;;;5.80;94.10;;;5.27;88.39;97824.00;5058332;28;20752;-65
2020/12/25 00:07:12;;;;;;;1.37;1.00;;;5.70;93.90;;;5.27;88.48;97823.19;5066346;28;20730;-64
2020/12/25 00:09:39;;;;;;;0.80;0.70;;;5.70;94.10;;;5.26;88.30;97835.28;5064087;28;20732;-66
2020/12/25 00:12:07;;;;;;;0.90;0.70;;;5.70;94.10;;;5.23;88.33;97838.03;5064919;28;20643;-65
2020/12/25 00:14:36;;;;;;;0.90;0.50;;;5.60;94.10;;;5.24;88.59;97834.50;5068177;28;20635;-65
2020/12/25 00:17:04;;;;;;;0.73;0.70;;;5.70;94.20;;;5.26;88.16;97848.19;5065015;28;21190;-66
2020/12/25 00:19:32;;;;;;;1.03;0.87;;;5.60;94.10;;;5.28;88.21;97851.53;5066292;28;20635;-65
2020/12/25 00:21:59;;;;;;;0.87;0.73;;;5.70;94.20;;;5.28;88.28;97861.06;5066546;28;21012;-65
2020/12/25 00:24:27;;;;;;;1.20;0.70;;;5.70;94.30;;;5.32;88.82;97857.38;5068096;28;20632;-66
2020/12/25 00:26:54;;;;;;;1.27;0.80;;;5.70;94.30;;;5.30;88.53;97849.69;5066049;28;21479;-65
2020/12/25 00:29:22;;;;;;;0.50;0.40;;;5.70;94.30;;;5.30;88.37;97849.69;5068724;28;21277;-65
2020/12/25 00:31:49;;;;;;;1.17;0.60;;;5.70;94.20;;;5.29;88.97;97858.38;5066511;28;20995;-65
2020/12/25 00:34:18;;;;;;;0.70;0.50;;;5.80;94.30;;;5.29;88.71;97862.69;5067945;28;21197;-66
2020/12/25 00:36:46;;;;;;;0.70;0.50;;;5.70;94.30;;;5.31;88.53;97864.31;5068523;28;21194;-66
2020/12/25 00:39:15;;;;;;;0.90;0.67;;;5.70;94.30;;;5.33;88.98;97869.41;5066094;28;20640;-66
2020/12/25 00:41:45;;;;;;;1.00;0.77;;;5.80;94.30;;;5.30;88.77;97867.78;5065418;28;20686;-66
2020/12/25 00:44:13;;;;;;;1.00;0.70;;;5.70;94.20;;;5.25;88.22;97874.94;5049029;28;20636;-66
2020/12/25 00:46:42;;;;;;;0.77;0.60;;;5.70;94.20;;;5.22;88.43;97867.34;5070983;28;20644;-66
2020/12/25 00:49:11;;;;;;;0.77;0.63;;;5.60;94.10;;;5.17;87.89;97877.09;5069988;28;20632;-66
2020/12/25 00:51:40;;;;;;;0.87;0.80;;;5.60;94.00;;;5.16;88.88;97870.25;5066110;28;20664;-65
2020/12/25 00:54:07;;;;;;;0.77;0.70;;;5.60;94.20;;;5.16;88.70;97877.19;5070861;28;20647;-66
2020/12/25 00:56:53;;;;;;;0.70;0.70;;;5.60;94.30;;;5.11;88.36;97883.47;5065606;28;20666;-66
2020/12/25 00:59:28;;;;;;;0.90;0.80;;;5.60;94.30;;;5.09;88.93;97886.13;5053795;28;20638;-65
2020/12/25 01:01:55;;;;;;;1.53;0.97;;;5.50;94.20;;;5.08;88.71;97894.78;5067474;28;20631;-66
2020/12/25 01:04:23;;;;;;;1.00;0.90;;;5.50;94.20;;;5.01;88.84;97903.78;5067585;28;20758;-66
2020/12/25 01:06:51;;;;;;;0.80;0.80;;;5.40;93.90;;;5.01;89.30;97903.78;5069849;28;21032;-66
2020/12/25 01:09:18;;;;;;;0.80;0.80;;;5.40;94.30;;;4.98;88.06;97905.69;5066218;28;21187;-65
2020/12/25 01:11:46;;;;;;;1.10;1.00;;;5.40;94.30;;;4.99;89.30;97909.94;5069499;28;20648;-66
2020/12/25 01:14:13;;;;;;;0.90;0.80;;;5.40;94.40;;;5.05;88.54;97914.78;5066512;28;21229;-66
2020/12/25 01:16:41;;;;;;;1.10;1.00;;;5.40;94.40;;;5.04;88.87;97920.88;5066544;28;21265;-67
2020/12/25 01:19:09;;;;;;;1.37;1.20;;;5.40;94.30;;;5.02;88.95;97915.78;5069716;28;20727;-65
2020/12/25 01:21:36;;;;;;;1.20;1.10;;;5.40;94.30;;;5.01;89.31;97919.28;5067887;28;21054;-65
2020/12/25 01:24:05;;;;;;;1.33;1.10;;;5.40;94.40;;;5.01;89.15;97927.03;5069534;28;20640;-66
2020/12/25 01:26:32;;;;;;;1.13;1.03;;;5.40;94.40;;;5.01;89.00;97928.78;5068340;28;20620;-66
2020/12/25 01:29:03;;;;;;;1.30;1.17;;;5.40;94.40;;;5.03;88.61;97932.94;5066076;28;20720;-65
2020/12/25 01:31:31;;;;;;;0.80;0.80;;;5.40;94.40;;;5.03;89.20;97940.69;5068713;28;20726;-65
2020/12/25 01:33:59;;;;;;;1.57;1.37;;;5.50;94.60;;;5.03;89.00;97937.28;5070777;28;21084;-66
2020/12/25 01:36:26;;;;;;;1.47;1.13;;;5.40;94.40;;;5.05;89.39;97943.22;5069666;28;20726;-66
2020/12/25 01:38:54;;;;;;;1.00;0.70;;;5.50;94.50;;;5.04;89.13;97944.97;5069075;28;20754;-66
2020/12/25 01:41:23;;;;;;;0.97;0.83;;;5.50;94.40;;;5.07;88.86;97950.00;5067627;28;20667;-65
2020/12/25 01:43:50;;;;;;;0.90;0.70;;;5.50;94.40;;;5.06;88.67;97956.06;5076048;28;20655;-66
2020/12/25 01:46:18;;;;;;;0.90;0.67;;;5.50;94.30;;;5.03;88.10;97956.19;5066578;28;20636;-66
2020/12/25 01:48:45;;;;;;;0.70;0.67;;;5.40;94.10;;;5.03;88.46;97961.38;5069082;28;20634;-66
2020/12/25 01:51:14;;;;;;;0.70;0.60;;;5.40;94.20;;;5.04;87.90;97967.41;5069283;28;20735;-65
2020/12/25 01:53:43;;;;;;;0.90;0.70;;;5.50;94.20;;;5.03;88.77;97965.72;5066159;28;20716;-66
2020/12/25 01:56:12;;;;;;;1.20;0.70;;;5.40;94.10;;;5.00;88.32;97965.88;5065737;28;20743;-66
2020/12/25 01:58:42;;;;;;;0.80;0.80;;;5.40;94.20;;;5.05;88.48;97974.22;5070134;28;20655;-66
2020/12/25 02:01:11;;;;;;;1.00;0.80;;;5.40;94.10;;;5.04;87.87;97975.16;5067666;28;20734;-66
2020/12/25 02:03:38;;;;;;;0.70;0.70;;;5.40;94.00;;;5.03;88.14;97970.88;5063814;28;20695;-64
2020/12/25 02:06:06;;;;;;;0.70;0.70;;;5.40;93.90;;;4.97;87.04;97976.34;5071145;28;20758;-64
2020/12/25 02:08:33;;;;;;;0.87;0.63;;;5.40;93.90;;;4.88;88.40;97969.84;5068131;28;21277;-65
2020/12/25 02:11:01;;;;;;;1.10;0.73;;;5.30;93.70;;;4.90;87.68;97982.69;5071143;28;20991;-66
2020/12/25 02:13:30;;;;;;;0.80;0.70;;;5.30;93.90;;;4.88;88.58;97982.78;5069940;28;21007;-66
2020/12/25 02:15:59;;;;;;;1.50;0.77;;;5.30;93.90;;;4.87;88.18;97988.00;5067830;28;20635;-66
2020/12/25 02:18:36;;;;;;;0.80;0.70;;;5.30;93.90;;;4.84;87.95;97991.59;5070008;28;20660;-65
2020/12/25 02:21:05;;;;;;;1.20;0.80;;;5.30;93.90;;;4.88;88.18;97998.28;5073779;28;20674;-64
2020/12/25 02:23:32;;;;;;;0.80;0.80;;;5.30;93.80;;;4.87;88.27;97999.19;5070701;28;20743;-65
2020/12/25 02:26:00;;;;;;;1.20;0.80;;;5.30;93.70;;;4.84;87.17;97990.75;5070142;28;20667;-65
2020/12/25 02:28:27;;;;;;;0.73;0.73;;;5.30;94.00;;;4.83;86.98;97992.50;5071606;28;20628;-66
2020/12/25 02:30:55;;;;;;;0.90;0.80;;;5.20;93.40;;;4.74;87.79;97999.84;5070355;28;21085;-66
2020/12/25 02:33:27;;;;;;;2.73;0.97;;;5.10;93.50;;;4.73;88.22;98001.56;5069933;28;20687;-65
2020/12/25 02:35:54;;;;;;;2.00;1.10;;;5.20;93.80;;;4.76;87.75;98005.78;5070425;28;20633;-66
2020/12/25 02:38:23;;;;;;;1.60;1.30;;;5.10;93.60;;;4.72;88.21;98004.22;5071618;28;22445;-66
2020/12/25 02:40:51;;;;;;;1.27;1.17;;;5.10;93.90;;;4.70;87.57;98008.63;5068541;28;20656;-65
2020/12/25 02:43:19;;;;;;;1.70;1.40;;;5.10;93.60;;;4.64;87.38;97998.59;5068598;28;21169;-65
2020/12/25 02:45:46;;;;;;;2.63;1.20;;;5.00;93.70;;;4.64;88.03;98001.19;5072811;28;20742;-66
2020/12/25 02:48:14;;;;;;;1.67;1.40;;;5.00;94.00;;;4.65;88.17;98010.59;5074916;28;20627;-65
2020/12/25 02:50:41;;;;;;;1.53;1.27;;;5.10;94.20;;;4.68;88.73;98013.88;5072540;28;20663;-66
2020/12/25 02:53:09;;;;;;;2.13;1.60;;;5.10;94.20;;;4.71;87.83;98012.91;5072861;28;20643;-65
2020/12/25 02:55:37;;;;;;;2.10;1.70;;;5.10;94.00;;;4.74;88.43;98023.09;5072127;28;20731;-64
2020/12/25 02:58:05;;;;;;;3.20;1.90;;;5.10;93.90;;;4.68;87.23;98028.53;5071219;28;20760;-66
2020/12/25 03:00:32;;;;;;;2.03;1.43;;;5.10;93.90;;;4.63;88.10;98033.09;5071196;28;20781;-66
2020/12/25 03:03:00;;;;;;;1.40;1.30;;;5.00;93.90;;;4.59;88.40;98026.38;5069823;28;20674;-65
2020/12/25 03:05:33;;;;;;;2.10;1.80;;;5.00;94.30;;;4.58;87.77;98024.69;5067553;28;20646;-67
2020/12/25 03:08:01;;;;;;;2.20;2.00;;;5.00;94.00;;;4.57;88.44;98024.78;5069137;28;21178;-67
2020/12/25 03:10:29;;;;;;;2.80;2.20;;;5.00;94.00;;;4.56;87.74;98026.53;5066513;28;21214;-68
2020/12/25 03:12:58;;;;;;;2.17;1.90;;;5.00;94.00;;;4.57;88.53;98035.97;5072866;28;20635;-66
2020/12/25 03:15:25;;;;;;;1.90;1.70;;;5.00;94.10;;;4.59;88.27;98028.97;5068326;28;20642;-67
2020/12/25 03:17:53;;;;;;;2.00;1.80;;;5.00;94.10;;;4.60;89.08;98027.22;5068972;28;21202;-67
2020/12/25 03:20:20;;;;;;;2.10;1.90;;;5.00;94.10;;;4.60;88.43;98033.22;5068828;28;20631;-68
2020/12/25 03:22:48;;;;;;;2.70;2.33;;;5.00;94.10;;;4.63;88.08;98035.69;5071550;28;20639;-67
2020/12/25 03:25:15;;;;;;;2.83;2.53;;;5.00;94.10;;;4.64;87.40;98032.16;5066045;28;20671;-67
2020/12/25 03:27:43;;;;;;;2.77;2.47;;;5.10;94.00;;;4.64;88.64;98028.75;5069626;28;20639;-66
2020/12/25 03:30:11;;;;;;;2.80;2.47;;;5.00;94.00;;;4.64;88.55;98029.59;5068347;28;20713;-67
2020/12/25 03:32:39;;;;;;;2.80;2.20;;;5.10;94.10;;;4.66;88.34;98035.53;5071142;28;20738;-67
2020/12/25 03:35:06;;;;;;;3.33;2.63;;;5.10;94.00;;;4.66;88.36;98035.53;5070530;28;20643;-67
2020/12/25 03:37:34;;;;;;;4.57;3.03;;;5.10;94.00;;;4.65;88.12;98041.59;5069238;28;20655;-66
2020/12/25 03:40:03;;;;;;;3.40;2.60;;;5.10;94.10;;;4.64;88.30;98033.91;5070989;28;20683;-66
2020/12/25 03:42:31;;;;;;;3.30;2.70;;;5.10;94.00;;;4.63;87.45;98030.50;5070942;28;20641;-66
2020/12/25 03:44:59;;;;;;;3.63;3.03;;;5.10;94.00;;;4.62;88.57;98036.56;5069061;28;20730;-66
2020/12/25 03:47:28;;;;;;;3.50;2.70;;;5.00;94.30;;;4.60;87.98;98034.97;5068625;28;20623;-66
2020/12/25 03:49:55;;;;;;;3.67;3.03;;;5.00;94.00;;;4.59;88.02;98049.63;5066523;28;20988;-66
2020/12/25 03:52:23;;;;;;;3.00;2.70;;;5.00;94.10;;;4.68;88.46;98043.22;5073275;28;20751;-67
2020/12/25 03:54:51;;;;;;;4.00;2.90;;;5.10;94.10;;;4.64;87.58;98044.25;5069333;28;20738;-67
2020/12/25 03:57:18;;;;;;;3.87;3.30;;;5.10;94.10;;;4.63;87.99;98053.75;5067467;28;20648;-67
2020/12/25 03:59:46;;;;;;;4.30;3.03;;;5.10;94.10;;;4.61;88.45;98052.97;5069075;28;21142;-64
2020/12/25 04:02:13;;;;;;;3.63;3.13;;;5.10;94.10;;;4.61;88.25;98054.72;5067523;28;20635;-65
2020/12/25 04:04:42;;;;;;;3.23;2.60;;;5.00;94.10;;;4.61;88.94;98052.97;5069936;28;20766;-66
2020/12/25 04:07:09;;;;;;;3.43;2.47;;;5.00;94.00;;;4.65;87.78;98062.25;5069018;28;20683;-64
2020/12/25 04:09:37;;;;;;;4.03;3.13;;;5.10;94.10;;;4.65;88.60;98067.41;5069746;28;20692;-66
2020/12/25 04:12:04;;;;;;;3.60;3.00;;;5.10;94.10;;;4.70;87.74;98068.03;5068778;28;20631;-65
2020/12/25 04:14:32;;;;;;;3.60;3.13;;;5.10;94.00;;;4.66;88.80;98069.09;5068629;28;20636;-66
2020/12/25 04:16:59;;;;;;;4.10;3.20;;;5.10;94.00;;;4.65;88.99;98064.00;5068112;28;20631;-65
2020/12/25 04:19:27;;;;;;;3.90;3.13;;;5.10;94.00;;;4.66;87.68;98069.09;5069515;28;21212;-65
2020/12/25 04:21:55;;;;;;;3.60;3.03;;;5.10;94.00;;;4.68;88.71;98060.34;5069909;28;20996;-67
2020/12/25 04:24:22;;;;;;;3.70;2.90;;;5.10;94.00;;;4.66;88.54;98069.09;5064775;28;20648;-66
2020/12/25 04:26:50;;;;;;;4.00;3.00;;;5.10;93.90;;;4.72;87.35;98064.50;5068450;28;20675;-68
2020/12/25 04:29:18;;;;;;;3.87;3.07;;;5.10;93.80;;;4.69;87.15;98074.09;5069065;28;20737;-66
2020/12/25 04:31:45;;;;;;;4.17;3.03;;;5.00;93.60;;;4.66;88.45;98071.69;5070845;28;20639;-67
2020/12/25 04:34:13;;;;;;;4.80;3.40;;;5.00;93.80;;;4.69;87.40;98076.69;5068734;28;20636;-66
2020/12/25 04:36:40;;;;;;;4.83;3.37;;;5.10;94.00;;;4.69;88.53;98079.25;5068440;28;20646;-66
2020/12/25 04:39:09;;;;;;;6.60;3.60;;;5.10;94.10;;;4.65;88.00;98088.06;5069178;28;20665;-66
2020/12/25 04:41:37;;;;;;;6.90;5.00;;;5.10;93.90;;;4.67;88.77;98093.16;5069108;28;20644;-66
2020/12/25 04:44:06;;;;;;;4.30;3.13;;;5.10;94.00;;;4.65;88.17;98095.81;5069734;28;20643;-66
2020/12/25 04:46:34;;;;;;;4.23;3.03;;;5.10;93.90;;;4.63;88.43;98099.38;5067543;28;22868;-67
2020/12/25 04:49:02;;;;;;;5.23;3.67;;;5.10;93.90;;;4.63;88.45;98097.66;5068518;28;21050;-67
2020/12/25 04:51:29;;;;;;;6.83;4.37;;;5.10;93.90;;;4.64;87.94;98104.47;5068378;28;20651;-67
2020/12/25 04:53:57;;;;;;;6.97;4.60;;;5.10;94.00;;;4.68;88.68;98110.34;5069385;28;20631;-67
2020/12/25 04:56:26;;;;;;;6.20;4.37;;;5.10;94.00;;;4.69;87.89;98105.94;5060299;28;20635;-67
2020/12/25 04:58:54;;;;;;;7.03;4.90;;;5.10;94.10;;;4.72;88.88;98105.81;5068690;28;20651;-67
2020/12/25 05:01:22;;;;;;;7.90;4.97;;;5.20;94.00;;;4.74;88.17;98110.91;5067095;28;20713;-67
2020/12/25 05:03:49;;;;;;;7.23;5.37;;;5.20;94.10;;;4.74;89.06;98111.72;5067196;28;20772;-66
2020/12/25 05:06:19;;;;;;;7.70;5.33;;;5.20;94.10;;;4.78;87.71;98115.00;5068313;28;20726;-67
2020/12/25 05:08:48;;;;;;;7.23;5.13;;;5.20;94.10;;;4.87;88.16;98119.75;5050429;28;20663;-66
2020/12/25 05:11:18;;;;;;;7.90;5.43;;;5.30;93.90;;;4.85;87.69;98127.56;5071011;28;20685;-66
2020/12/25 05:13:48;;;;;;;6.77;4.47;;;5.30;93.70;;;4.88;87.61;98127.44;5069567;28;20635;-66
2020/12/25 05:16:17;;;;;;;7.37;4.90;;;5.30;93.60;;;4.83;87.57;98128.56;5069697;28;20659;-67
2020/12/25 05:18:48;;;;;;;5.33;4.07;;;5.20;93.60;;;4.80;87.00;98126.13;5068472;28;20659;-67
2020/12/25 05:21:17;;;;;;;7.53;4.97;;;5.20;93.60;;;4.78;88.11;98127.91;5065544;28;20663;-66
2020/12/25 05:23:46;;;;;;;8.00;5.43;;;5.20;93.70;;;4.78;87.28;98131.34;5063614;28;20635;-66
2020/12/25 05:26:15;;;;;;;7.90;5.17;;;5.20;93.70;;;4.77;88.25;98134.84;5069864;28;20641;-66
2020/12/25 05:28:46;;;;;;;8.13;5.73;;;5.20;93.80;;;4.80;87.97;98133.88;5059175;28;20730;-67
2020/12/25 05:31:14;;;;;;;8.80;6.13;;;5.20;93.80;;;4.79;87.75;98134.78;5066706;28;20631;-67
2020/12/25 05:33:42;;;;;;;7.57;5.03;;;5.20;93.80;;;4.83;87.87;98137.16;5070039;28;20640;-66
2020/12/25 05:36:13;;;;;;;9.53;6.47;;;5.30;93.90;;;4.81;87.22;98145.88;5067382;28;20714;-66
2020/12/25 05:38:47;;;;;;;9.70;6.63;;;5.20;93.70;;;4.78;88.53;98139.09;5068844;28;21052;-67
2020/12/25 05:41:16;;;;;;;9.10;6.33;;;5.20;93.70;;;4.81;87.37;98145.88;5072538;28;20646;-67
2020/12/25 05:43:48;;;;;;;10.37;6.67;;;5.20;93.80;;;4.77;88.29;98146.94;5074256;28;20651;-68
2020/12/25 05:46:15;;;;;;;7.63;6.10;;;5.20;93.60;;;4.77;87.36;98152.09;5073172;28;20692;-67
2020/12/25 05:48:50;;;;;;;10.60;6.90;;;5.20;93.70;;;4.77;88.50;98157.25;5072117;28;20641;-67
2020/12/25 05:51:22;;;;;;;9.07;6.70;;;5.20;93.80;;;4.81;87.33;98158.78;5072163;28;20704;-68
2020/12/25 05:53:53;;;;;;;9.43;6.60;;;5.20;93.80;;;4.83;88.17;98159.56;5069825;28;20639;-67
2020/12/25 05:56:21;;;;;;;7.97;5.60;;;5.20;93.70;;;4.82;87.68;98155.31;5069232;28;21281;-67
2020/12/25 05:58:52;;;;;;;8.60;6.40;;;5.20;93.70;;;4.82;87.40;98156.13;5070848;28;20665;-67
2020/12/25 06:01:20;;;;;;;10.40;6.63;;;5.30;93.80;;;4.85;87.78;98165.50;5069917;28;20639;-67
2020/12/25 06:03:48;;;;;;;10.03;6.60;;;5.30;93.60;;;4.81;87.17;98164.81;5070074;28;20666;-67
2020/12/25 06:06:16;;;;;;;11.10;7.10;;;5.30;93.60;;;4.76;87.00;98161.56;5071640;28;20669;-67
2020/12/25 06:08:59;;;;;;;8.83;6.00;;;5.20;93.60;;;4.76;87.47;98166.72;5071228;28;20632;-67
2020/12/25 06:11:30;;;;;;;8.67;6.40;;;5.20;93.60;;;4.77;87.81;98172.75;5066336;28;20639;-67
2020/12/25 06:14:00;;;;;;;8.67;6.40;;;5.20;93.70;;;4.75;88.52;98169.38;5068558;28;20671;-67
2020/12/25 06:16:28;;;;;;;9.90;7.27;;;5.20;93.70;;;4.74;87.57;98171.13;5067860;28;20635;-68
2020/12/25 06:19:05;;;;;;;12.50;6.90;;;5.20;93.80;;;4.75;88.33;98177.13;5069208;28;20659;-66
2020/12/25 06:21:45;;;;;;;8.73;6.33;;;5.20;93.80;;;4.80;88.04;98180.38;5060139;28;20633;-68
2020/12/25 06:24:18;;;;;;;8.53;5.83;;;5.20;93.80;;;4.80;87.88;98191.53;5065806;28;20630;-67
2020/12/25 06:26:51;;;;;;;9.83;6.50;;;5.20;93.90;;;4.82;88.55;98191.47;5072257;28;20693;-66
2020/12/25 06:29:20;;;;;;;8.60;6.10;;;5.20;93.80;;;4.78;88.22;98188.19;5068677;28;20725;-67
2020/12/25 06:31:48;;;;;;;9.80;6.73;;;5.20;93.80;;;4.78;88.65;98190.75;5071885;28;21214;-68
2020/12/25 06:34:16;;;;;;;9.50;6.57;;;5.20;94.00;;;4.79;88.09;98194.19;5068374;28;20631;-64
2020/12/25 06:36:46;;;;;;;10.00;6.47;;;5.20;94.00;;;4.78;87.85;98195.94;5068440;28;20631;-64
2020/12/25 06:39:18;;;;;;;8.93;6.73;;;5.20;93.90;;;4.78;88.01;98195.06;5069414;28;20660;-65
2020/12/25 06:41:46;;;;;;;12.33;7.97;;;5.20;94.00;;;4.80;87.65;98195.88;5071500;28;20704;-64
2020/12/25 06:44:16;;;;;;;10.53;7.37;;;5.20;94.00;;;4.77;88.83;98199.41;5069965;28;21076;-67
2020/12/25 06:46:51;;;;;;;12.17;7.53;;;5.20;94.10;;;4.78;88.30;98195.94;5069167;28;20632;-66
2020/12/25 06:49:21;;;;;;;10.23;6.70;;;5.20;94.10;;;4.76;88.58;98212.38;5070372;28;20623;-66
2020/12/25 06:51:49;;;;;;;12.23;8.00;;;5.20;94.00;;;4.77;87.91;98208.91;5069972;28;20631;-67
2020/12/25 06:54:18;;;;;;;8.90;6.07;;;5.20;94.10;;;4.78;88.02;98216.59;5069993;28;20733;-66
2020/12/25 06:56:47;;;;;;;8.37;5.83;;;5.20;94.20;;;4.80;88.05;98222.53;5066270;28;20734;-64
2020/12/25 06:59:16;;;;;;;9.43;6.40;;;5.20;94.20;;;4.86;88.27;98221.44;5069736;28;20709;-65
2020/12/25 07:01:45;;;;;;;10.23;7.10;;;5.30;94.20;;;4.85;88.99;98228.31;5071949;28;20644;-66
2020/12/25 07:04:28;;;;;;;9.87;6.60;;;5.20;94.00;;;4.86;87.88;98222.25;5065479;28;20762;-66
2020/12/25 07:07:00;;;;;;;10.80;6.70;;;5.30;94.10;;;4.88;89.09;98227.34;5069153;28;20631;-66
2020/12/25 07:09:39;;;;;;;10.57;6.37;;;5.30;94.00;;;4.88;88.76;98232.53;5063322;28;21237;-66
2020/12/25 07:12:12;;;;;;;10.00;6.33;;;5.40;94.10;;;4.87;87.99;98238.59;5066513;28;20635;-67
2020/12/25 07:14:40;;;;;;;10.23;6.53;;;5.30;94.10;;;4.90;89.12;98231.56;5065213;28;20667;-66
2020/12/25 07:17:07;;;;;;;9.90;6.60;;;5.30;94.10;;;4.92;88.83;98245.25;5071079;28;20635;-66
2020/12/25 07:19:37;;;;;;;10.60;6.90;;;5.30;94.00;;;4.99;88.34;98245.81;5071523;28;20759;-66
2020/12/25 07:22:05;;;;;;;11.93;7.00;;;5.40;94.10;;;5.00;87.44;98253.50;5067173;28;20781;-66
2020/12/25 07:24:37;;;;;;;9.07;6.17;;;5.40;94.30;;;4.92;88.06;98252.16;5068373;28;20730;-66
2020/12/25 07:27:05;;;;;;;13.33;8.77;;;5.30;93.90;;;4.94;88.10;98264.09;5063153;28;21203;-66
2020/12/25 07:29:33;;;;;;;12.43;8.27;;;5.30;94.10;;;4.95;88.60;98264.94;5069134;28;20718;-66
2020/12/25 07:32:01;;;;;;;10.37;7.43;;;5.30;94.10;;;4.96;88.79;98270.06;5052855;28;20630;-65
2020/12/25 07:34:29;;;;;;;12.30;7.73;;;5.30;94.30;;;4.96;88.29;98267.47;5054551;28;20646;-65
2020/12/25 07:36:57;;;;;;;10.67;6.47;;;5.30;94.30;;;4.93;89.43;98277.06;5068859;28;20742;-65
2020/12/25 07:39:28;;;;;;;10.43;6.13;;;5.30;94.50;;;4.92;89.32;98271.06;5062558;28;20759;-65
2020/12/25 07:41:56;;;;;;;10.23;6.13;;;5.30;94.30;;;4.88;88.15;98266.09;5067601;28;20639;-65
2020/12/25 07:44:24;;;;;;;9.17;6.40;;;5.30;94.40;;;4.91;89.39;98273.72;5069826;28;20716;-66
2020/12/25 07:46:52;;;;;;;9.67;6.37;;;5.30;94.30;;;4.90;88.44;98277.19;5070270;28;20979;-66
2020/12/25 07:49:20;;;;;;;10.87;6.80;;;5.30;94.30;;;4.90;89.41;98277.19;5054675;28;20635;-64
2020/12/25 07:51:49;;;;;;;10.30;7.07;;;5.30;94.30;;;4.88;88.42;98287.59;5063202;28;20645;-65
2020/12/25 07:54:19;;;;;;;14.63;7.30;;;5.30;94.40;;;4.88;88.53;98287.59;5051914;28;20663;-68
2020/12/25 07:56:49;;;;;;;10.80;7.20;;;5.30;94.80;;;4.89;89.53;98293.63;5068169;28;20787;-68
2020/12/25 07:59:16;;;;;;;16.13;8.50;;;5.30;94.50;;;4.90;88.98;98292.72;5071833;28;20746;-67
2020/12/25 08:01:45;;;;;;;13.07;8.30;;;5.30;94.60;;;4.94;89.00;98295.09;5067655;28;21280;-68
2020/12/25 08:04:12;;;;;;;15.43;10.40;;;5.40;94.70;;;4.98;88.79;98303.56;5071166;28;20726;-67
2020/12/25 08:06:41;;;;;;;13.77;9.70;;;5.40;94.80;;;5.01;88.73;98298.28;5067417;28;20670;-65
2020/12/25 08:09:11;;;;;;;12.73;8.53;;;5.40;94.70;;;5.01;89.97;98306.03;5070358;28;21228;-66
2020/12/25 08:11:41;;;;;;;13.37;7.77;;;5.50;94.80;;;5.00;89.45;98306.91;5070545;28;20643;-65
2020/12/25 08:14:11;;;;;;;11.87;7.60;;;5.40;94.80;;;5.02;89.03;98302.50;5072405;28;20635;-65
2020/12/25 08:16:39;;;;;;;10.23;7.07;;;5.50;94.80;;;5.04;89.60;98308.47;5071452;28;20645;-65
2020/12/25 08:19:07;;;;;;;9.57;6.10;;;5.50;94.70;;;5.06;89.20;98314.41;5072957;28;20766;-66
2020/12/25 08:21:37;;;;;;;10.13;6.40;;;5.50;94.60;;;5.06;89.50;98311.81;5067682;28;20686;-64
2020/12/25 08:24:06;;;;;;;12.60;7.60;;;5.50;94.50;;;5.05;89.36;98320.47;5072094;28;20643;-65
2020/12/25 08:26:37;;;;;;;9.67;7.23;;;5.50;94.50;;;5.11;89.07;98320.22;5068475;28;20632;-65
2020/12/25 08:29:06;;;;;;;11.30;7.20;;;5.50;94.50;;;5.14;88.11;98326.94;5069691;28;20719;-64
2020/12/25 08:31:35;;;;;;;9.67;6.50;;;5.60;94.40;;;5.15;89.33;98331.19;5068445;28;20727;-65
2020/12/25 08:34:04;;;;;;;12.20;8.63;;;5.60;94.50;;;5.16;88.95;98329.47;5069298;28;20731;-64
2020/12/25 08:36:33;;;;;;;12.77;8.33;;;5.60;94.50;;;5.17;88.53;98329.38;5070337;28;21023;-65
2020/12/25 08:39:07;;;;;;;12.97;7.30;;;5.60;94.50;;;5.19;89.04;98327.56;5070358;28;20669;-63
2020/12/25 08:41:35;;;;;;;11.43;6.90;;;5.60;94.50;;;5.18;88.73;98335.38;5069780;28;21072;-67
2020/12/25 08:44:11;;;;;;;14.40;9.07;;;5.60;94.50;;;5.14;88.95;98319.19;5052497;28;20729;-65
2020/12/25 08:46:39;;;;;;;12.03;7.47;;;5.60;94.30;;;5.20;88.52;98334.44;5070366;28;20750;-65
2020/12/25 08:49:07;;;;;;;13.87;8.17;;;5.60;94.10;;;5.19;87.77;98337.06;5069451;28;20730;-65
2020/12/25 08:51:38;;;;;;;13.67;8.20;;;5.60;94.20;;;5.24;88.27;98338.53;5069859;28;20635;-65
2020/12/25 08:54:07;;;;;;;12.20;7.87;;;5.60;94.50;;;5.30;88.70;98342.63;5073484;28;20635;-65
2020/12/25 08:56:36;;;;;;;13.00;7.67;;;5.70;94.50;;;5.28;88.83;98342.69;5064236;28;20702;-65
2020/12/25 08:59:05;;;;;;;12.17;8.17;;;5.70;94.50;;;5.30;88.62;98343.44;5066892;28;20660;-66
2020/12/25 09:01:37;;;;;;;12.10;7.30;;;5.70;94.50;;;5.32;89.00;98344.25;5068147;28;21313;-66
2020/12/25 09:04:05;;;;;;;12.53;8.37;;;5.70;94.90;;;5.34;89.06;98363.09;5071341;28;20650;-66
2020/12/25 09:06:33;;;;;;;12.03;8.70;;;5.70;94.50;;;5.30;87.99;98358.94;5068241;28;20682;-67
2020/12/25 09:09:00;;;;;;;16.27;9.30;;;5.70;94.30;;;5.32;88.67;98359.75;5070681;28;20632;-67
2020/12/25 09:11:28;;;;;;;25.50;16.77;;;5.70;94.10;;;5.34;88.05;98370.03;5067689;28;20647;-66
2020/12/25 09:13:55;;;;;;;11.27;8.13;;;5.80;94.20;;;5.36;88.18;98378.53;5070126;28;20624;-66
2020/12/25 09:16:23;;;;;;;14.07;8.77;;;5.70;94.30;;;5.36;88.95;98376.78;5066222;28;20636;-66
2020/12/25 09:18:52;;;;;;;12.23;9.00;;;5.80;94.40;;;5.36;88.70;98376.78;5062230;28;20647;-67
2020/12/25 09:21:19;;;;;;;13.73;8.60;;;5.80;94.40;;;5.41;88.28;98379.19;5066376;28;20727;-65
2020/12/25 09:23:47;;;;;;;14.87;11.07;;;5.80;94.40;;;5.54;88.37;98391.50;5064968;28;20758;-68
2020/12/25 09:26:15;;;;;;;21.30;14.77;;;5.90;94.50;;;5.61;88.61;98395.50;5066315;28;20637;-67
2020/12/25 09:28:42;;;;;;;13.57;9.52;;;6.00;94.50;;;5.60;87.93;98396.41;5064330;28;21365;-66
2020/12/25 09:31:13;;;;;;;14.00;10.60;;;5.90;94.10;;;5.57;87.55;98399.13;5067038;28;20681;-65
2020/12/25 09:33:41;;;;;;;16.30;10.53;;;5.90;93.90;;;5.56;87.57;98394.84;5061069;28;20639;-64
2020/12/25 09:36:11;;;;;;;16.17;11.47;;;5.90;93.80;;;5.46;87.80;98398.78;5061080;28;20635;-65
2020/12/25 09:38:43;;;;;;;19.43;13.17;;;5.80;93.70;;;5.46;87.56;98393.59;5066867;28;20659;-64
2020/12/25 09:41:13;;;;;;;21.67;13.60;;;5.80;94.20;;;5.46;88.30;98392.72;5066326;28;20643;-64
2020/12/25 09:43:41;;;;;;;17.40;11.93;;;5.90;94.30;;;5.47;88.65;98397.00;5065213;28;20642;-66
2020/12/25 09:46:09;;;;;;;20.97;13.70;;;5.90;94.40;;;5.51;88.48;98395.97;5064660;28;20635;-64
2020/12/25 09:48:40;;;;;;;22.40;14.00;;;5.90;94.30;;;5.52;88.42;98398.50;5063608;28;21029;-66
2020/12/25 09:51:10;;;;;;;22.53;13.27;;;5.90;94.30;;;5.53;88.46;98407.09;5067658;28;20632;-66
2020/12/25 09:53:37;;;;;;;20.20;13.60;;;6.00;94.40;;;5.54;88.35;98412.19;5061124;28;20723;-67
2020/12/25 09:56:05;;;;;;;23.30;14.13;;;6.00;94.40;;;5.54;88.88;98411.38;5066254;28;20655;-67
2020/12/25 09:58:33;;;;;;;19.93;13.10;;;6.00;94.50;;;5.54;88.47;98413.94;5068061;28;20748;-64
2020/12/25 10:01:01;;;;;;;23.67;13.17;;;6.00;94.70;;;5.57;88.85;98414.66;5042243;28;20631;-62
2020/12/25 10:03:28;;;;;;;22.53;13.03;;;6.00;94.20;;;5.58;88.34;98420.66;5063808;28;20660;-67
2020/12/25 10:05:56;;;;;;;20.40;12.63;;;6.00;94.20;;;5.61;88.00;98413.63;5062505;28;20708;-64
2020/12/25 10:08:24;;;;;;;17.73;11.30;;;6.00;94.20;;;5.65;88.31;98420.31;5066730;28;20694;-64
2020/12/25 10:10:52;;;;;;;14.47;10.87;;;6.00;94.10;;;5.68;88.38;98415.00;5069951;28;20750;-65
2020/12/25 10:13:19;;;;;;;13.13;9.50;;;6.10;94.20;;;5.77;88.43;98417.22;5067233;28;20726;-62
2020/12/25 10:15:48;;;;;;;14.40;10.50;;;6.10;94.40;;;5.84;88.65;98416.88;5065564;28;20642;-63
2020/12/25 10:18:15;;;;;;;18.80;12.20;;;6.20;94.50;;;5.94;88.75;98412.13;5069251;28;20750;-62
2020/12/25 10:20:43;;;;;;;15.93;10.00;;;6.30;94.60;;;6.01;88.63;98409.19;5069007;28;20698;-63
2020/12/25 10:23:11;;;;;;;12.43;8.40;;;6.40;94.70;;;6.07;88.49;98414.09;5050434;28;21187;-63
2020/12/25 10:25:39;;;;;;;11.50;8.00;;;6.40;94.70;;;6.12;88.57;98407.81;5068751;28;20727;-62
2020/12/25 10:28:07;;;;;;;9.60;7.83;;;6.50;94.60;;;6.19;88.50;98416.13;5073617;28;20682;-62
2020/12/25 10:30:34;;;;;;;10.43;8.43;;;6.50;94.50;;;6.24;88.49;98415.03;5070566;28;20750;-62
2020/12/25 10:33:02;;;;;;;12.70;9.37;;;6.60;94.50;;;6.33;88.54;98406.84;5074086;28;21191;-66
2020/12/25 10:35:29;;;;;;;11.37;7.80;;;6.70;94.50;;;6.40;87.72;98413.38;5075748;28;20744;-64
2020/12/25 10:37:57;;;;;;;9.10;7.50;;;6.70;94.30;;;6.45;88.25;98411.44;5072689;28;20644;-64